createdAt,value
2018-02-01T00:00:40.083Z,8.4
2018-02-01T00:01:42.508Z,8.4
2018-02-01T00:02:45.245Z,8.4
2018-02-01T00:03:47.669Z,8.4
2018-02-01T00:04:50.091Z,8.4
2018-02-01T00:05:52.513Z,8.4
2018-02-01T00:06:54.935Z,8.4
2018-02-01T00:07:57.651Z,8.4
2018-02-01T00:09:00.073Z,8.4
2018-02-01T00:10:02.773Z,8.3
2018-02-01T00:11:05.192Z,8.4
2018-02-01T00:12:07.891Z,8.4
2018-02-01T00:13:10.321Z,8.3
2018-02-01T00:14:12.751Z,8.4
2018-02-01T00:15:15.167Z,8.4
2018-02-01T00:16:17.593Z,8.4
2018-02-01T00:17:20.026Z,8.4
2018-02-01T00:18:22.734Z,8.4
2018-02-01T00:19:25.171Z,8.3
2018-02-01T00:20:27.879Z,8.3
2018-02-01T00:21:30.302Z,8.3
2018-02-01T00:22:32.730Z,8.3
2018-02-01T00:23:35.156Z,8.3
2018-02-01T00:24:37.571Z,8.3
2018-02-01T00:25:40.006Z,8.4
2018-02-01T00:26:42.432Z,8.4
2018-02-01T00:27:44.861Z,8.4
2018-02-01T00:28:47.295Z,8.3
2018-02-01T00:29:49.719Z,8.3
2018-02-01T00:30:52.144Z,8.3
2018-02-01T00:31:54.559Z,8.3
2018-02-01T00:32:56.989Z,8.3
2018-02-01T00:33:59.408Z,8.2
2018-02-01T00:35:01.825Z,8.2
2018-02-01T00:36:04.246Z,8.2
2018-02-01T00:37:06.966Z,8.1
2018-02-01T00:38:09.388Z,8.1
2018-02-01T00:39:12.127Z,8.1
2018-02-01T00:40:14.551Z,8.1
2018-02-01T00:41:16.972Z,8.1
2018-02-01T00:42:19.399Z,8.1
2018-02-01T00:43:21.830Z,8.1
2018-02-01T00:44:24.257Z,8.1
2018-02-01T00:45:26.681Z,8.1
2018-02-01T00:46:29.097Z,8.1
2018-02-01T00:47:31.531Z,8.1
2018-02-01T00:48:33.957Z,8.1
2018-02-01T00:49:36.375Z,8
2018-02-01T00:50:38.804Z,8.1
2018-02-01T00:51:41.234Z,8
2018-02-01T00:52:43.655Z,8.1
2018-02-01T00:53:46.086Z,8.1
2018-02-01T00:54:48.505Z,8.1
2018-02-01T00:55:51.217Z,8.1
2018-02-01T00:56:53.642Z,8.1
2018-02-01T00:57:56.059Z,8.1
2018-02-01T00:58:58.487Z,8.1
2018-02-01T01:00:00.912Z,8.1
2018-02-01T01:01:03.344Z,8.1
2018-02-01T01:02:05.769Z,8.1
2018-02-01T01:03:08.195Z,8.1
2018-02-01T01:04:10.900Z,8.1
2018-02-01T01:05:13.336Z,8.1
2018-02-01T01:06:15.757Z,8.1
2018-02-01T01:07:18.184Z,8
2018-02-01T01:08:20.605Z,8
2018-02-01T01:09:23.036Z,8
2018-02-01T01:10:25.771Z,8
2018-02-01T01:11:28.200Z,8
2018-02-01T01:12:30.902Z,8
2018-02-01T01:13:33.331Z,7.9
2018-02-01T01:14:35.757Z,7.9
2018-02-01T01:15:38.187Z,7.9
2018-02-01T01:16:40.618Z,7.9
2018-02-01T01:17:43.041Z,7.8
2018-02-01T01:18:45.469Z,7.8
2018-02-01T01:19:47.904Z,7.8
2018-02-01T01:20:50.328Z,7.8
2018-02-01T01:21:52.752Z,7.8
2018-02-01T01:22:55.171Z,7.8
2018-02-01T01:23:57.596Z,7.8
2018-02-01T01:25:00.046Z,7.7
2018-02-01T01:26:02.747Z,7.8
2018-02-01T01:27:05.173Z,7.8
2018-02-01T01:28:07.592Z,7.7
2018-02-01T01:29:10.011Z,7.7
2018-02-01T01:30:12.429Z,7.7
2018-02-01T01:31:14.856Z,7.7
2018-02-01T01:32:17.279Z,7.7
2018-02-01T01:33:19.706Z,7.6
2018-02-01T01:34:22.131Z,7.7
2018-02-01T01:35:24.554Z,7.7
2018-02-01T01:36:26.980Z,7.7
2018-02-01T01:37:29.412Z,7.7
2018-02-01T01:38:32.131Z,7.6
2018-02-01T01:39:34.561Z,7.6
2018-02-01T01:40:36.976Z,7.7
2018-02-01T01:41:39.401Z,7.7
2018-02-01T01:42:41.830Z,7.7
2018-02-01T01:43:44.250Z,7.7
2018-02-01T01:44:46.965Z,7.7
2018-02-01T01:45:49.383Z,7.7
2018-02-01T01:46:51.806Z,7.7
2018-02-01T01:47:54.240Z,7.7
2018-02-01T01:48:56.663Z,7.6
2018-02-01T01:49:59.089Z,7.6
2018-02-01T01:51:01.514Z,7.7
2018-02-01T01:52:04.241Z,7.6
2018-02-01T01:53:06.665Z,7.7
2018-02-01T01:54:09.376Z,7.7
2018-02-01T01:55:11.806Z,7.7
2018-02-01T01:56:14.236Z,7.6
2018-02-01T01:57:16.924Z,7.6
2018-02-01T01:58:19.350Z,7.6
2018-02-01T01:59:21.789Z,7.6
2018-02-01T02:00:24.212Z,7.5
2018-02-01T02:01:26.637Z,7.5
2018-02-01T02:02:29.065Z,7.5
2018-02-01T02:03:31.486Z,7.5
2018-02-01T02:04:33.923Z,7.5
2018-02-01T02:05:36.347Z,7.5
2018-02-01T02:06:38.800Z,7.4
2018-02-01T02:07:41.187Z,7.4
2018-02-01T02:08:43.607Z,7.4
2018-02-01T02:09:46.032Z,7.4
2018-02-01T02:10:48.457Z,7.4
2018-02-01T02:11:50.881Z,7.4
2018-02-01T02:12:53.587Z,7.3
2018-02-01T02:13:56.022Z,7.3
2018-02-01T02:14:58.447Z,7.3
2018-02-01T02:16:00.868Z,7.3
2018-02-01T02:17:03.299Z,7.3
2018-02-01T02:18:05.717Z,7.3
2018-02-01T02:19:08.151Z,7.3
2018-02-01T02:20:10.574Z,7.3
2018-02-01T02:21:12.986Z,7.3
2018-02-01T02:22:15.410Z,7.3
2018-02-01T02:23:17.832Z,7.3
2018-02-01T02:24:20.252Z,7.3
2018-02-01T02:25:22.673Z,7.2
2018-02-01T02:26:25.384Z,7.3
2018-02-01T02:27:27.807Z,7.2
2018-02-01T02:28:30.222Z,7.2
2018-02-01T02:29:32.646Z,7.2
2018-02-01T02:30:35.086Z,7.2
2018-02-01T02:31:37.808Z,7.2
2018-02-01T02:32:40.237Z,7.2
2018-02-01T02:33:42.655Z,7.2
2018-02-01T02:34:45.366Z,7.2
2018-02-01T02:35:47.794Z,7.2
2018-02-01T02:36:50.220Z,7.2
2018-02-01T02:37:52.929Z,7.2
2018-02-01T02:38:55.361Z,7.2
2018-02-01T02:39:58.062Z,7.2
2018-02-01T02:41:00.801Z,7.2
2018-02-01T02:42:03.192Z,7.2
2018-02-01T02:43:05.606Z,7.2
2018-02-01T02:44:08.030Z,7.2
2018-02-01T02:45:11.037Z,7.2
2018-02-01T02:46:13.454Z,7.2
2018-02-01T02:47:15.882Z,7.2
2018-02-01T02:48:18.306Z,7.2
2018-02-01T02:49:21.023Z,7.2
2018-02-01T02:50:23.758Z,7.1
2018-02-01T02:51:26.188Z,7.1
2018-02-01T02:52:29.174Z,7.1
2018-02-01T02:53:31.603Z,7.1
2018-02-01T02:54:34.652Z,7.1
2018-02-01T02:55:37.027Z,7
2018-02-01T02:56:39.448Z,7
2018-02-01T02:57:41.875Z,7
2018-02-01T02:58:44.302Z,7
2018-02-01T02:59:46.714Z,7
2018-02-01T03:00:49.140Z,7
2018-02-01T03:01:51.564Z,7
2018-02-01T03:02:53.985Z,7
2018-02-01T03:03:56.698Z,7
2018-02-01T03:04:59.124Z,7
2018-02-01T03:06:01.542Z,7
2018-02-01T03:07:03.972Z,6.9
2018-02-01T03:08:06.678Z,6.9
2018-02-01T03:09:09.100Z,6.9
2018-02-01T03:10:11.525Z,6.9
2018-02-01T03:11:13.938Z,6.9
2018-02-01T03:12:16.363Z,6.9
2018-02-01T03:13:18.799Z,6.9
2018-02-01T03:14:21.226Z,6.9
2018-02-01T03:15:23.650Z,6.9
2018-02-01T03:16:26.074Z,6.9
2018-02-01T03:17:28.497Z,6.9
2018-02-01T03:18:30.935Z,6.8
2018-02-01T03:19:33.360Z,6.8
2018-02-01T03:20:35.768Z,6.8
2018-02-01T03:21:38.473Z,6.8
2018-02-01T03:22:41.193Z,6.8
2018-02-01T03:23:43.925Z,6.8
2018-02-01T03:24:46.356Z,6.8
2018-02-01T03:25:49.366Z,6.8
2018-02-01T03:26:51.797Z,6.8
2018-02-01T03:27:54.209Z,6.8
2018-02-01T03:28:56.631Z,6.8
2018-02-01T03:29:59.065Z,6.8
2018-02-01T03:31:01.493Z,6.8
2018-02-01T03:32:03.919Z,6.8
2018-02-01T03:33:06.629Z,6.8
2018-02-01T03:34:09.048Z,6.7
2018-02-01T03:35:11.481Z,6.8
2018-02-01T03:36:13.906Z,6.8
2018-02-01T03:37:16.660Z,6.8
2018-02-01T03:38:19.091Z,6.8
2018-02-01T03:39:21.794Z,6.8
2018-02-01T03:40:24.220Z,6.8
2018-02-01T03:41:26.645Z,6.8
2018-02-01T03:42:29.064Z,6.8
2018-02-01T03:43:31.489Z,6.8
2018-02-01T03:44:33.924Z,6.7
2018-02-01T03:45:36.339Z,6.8
2018-02-01T03:46:39.056Z,6.8
2018-02-01T03:47:41.474Z,6.7
2018-02-01T03:48:43.896Z,6.8
2018-02-01T03:49:46.319Z,6.7
2018-02-01T03:50:49.019Z,6.8
2018-02-01T03:51:51.435Z,6.7
2018-02-01T03:52:53.857Z,6.7
2018-02-01T03:53:56.289Z,6.7
2018-02-01T03:54:58.714Z,6.7
2018-02-01T03:56:01.459Z,6.8
2018-02-01T03:57:03.844Z,6.7
2018-02-01T03:58:06.565Z,6.7
2018-02-01T03:59:08.965Z,6.7
2018-02-01T04:00:11.402Z,6.7
2018-02-01T04:01:13.818Z,6.7
2018-02-01T04:02:16.237Z,6.7
2018-02-01T04:03:18.674Z,6.7
2018-02-01T04:04:21.089Z,6.7
2018-02-01T04:05:23.512Z,6.7
2018-02-01T04:06:26.236Z,6.7
2018-02-01T04:07:28.653Z,6.7
2018-02-01T04:08:31.369Z,6.7
2018-02-01T04:09:33.795Z,6.7
2018-02-01T04:10:36.210Z,6.7
2018-02-01T04:11:38.636Z,6.7
2018-02-01T04:12:41.068Z,6.7
2018-02-01T04:13:43.488Z,6.7
2018-02-01T04:14:45.904Z,6.7
2018-02-01T04:15:48.322Z,6.7
2018-02-01T04:16:51.028Z,6.7
2018-02-01T04:17:53.461Z,6.7
2018-02-01T04:18:55.880Z,6.7
2018-02-01T04:19:58.303Z,6.7
2018-02-01T04:21:00.720Z,6.7
2018-02-01T04:22:03.155Z,6.7
2018-02-01T04:23:05.569Z,6.6
2018-02-01T04:24:08.278Z,6.7
2018-02-01T04:25:10.995Z,6.6
2018-02-01T04:26:13.420Z,6.6
2018-02-01T04:27:15.845Z,6.6
2018-02-01T04:28:18.266Z,6.6
2018-02-01T04:29:20.683Z,6.5
2018-02-01T04:30:23.401Z,6.5
2018-02-01T04:31:25.818Z,6.5
2018-02-01T04:32:28.234Z,6.5
2018-02-01T04:33:30.937Z,6.5
2018-02-01T04:34:33.393Z,6.4
2018-02-01T04:35:35.809Z,6.4
2018-02-01T04:36:38.237Z,6.4
2018-02-01T04:37:40.662Z,6.4
2018-02-01T04:38:43.363Z,6.4
2018-02-01T04:39:45.788Z,6.4
2018-02-01T04:40:48.509Z,6.4
2018-02-01T04:41:50.921Z,6.4
2018-02-01T04:42:53.352Z,6.4
2018-02-01T04:43:55.769Z,6.3
2018-02-01T04:44:58.187Z,6.3
2018-02-01T04:46:00.614Z,6.3
2018-02-01T04:47:03.044Z,6.3
2018-02-01T04:48:05.470Z,6.3
2018-02-01T04:49:07.900Z,6.3
2018-02-01T04:50:10.320Z,6.3
2018-02-01T04:51:12.745Z,6.3
2018-02-01T04:52:15.171Z,6.3
2018-02-01T04:53:17.594Z,6.3
2018-02-01T04:54:20.021Z,6.3
2018-02-01T04:55:22.496Z,6.3
2018-02-01T04:56:24.909Z,6.3
2018-02-01T04:57:27.330Z,6.4
2018-02-01T04:58:29.763Z,6.4
2018-02-01T04:59:32.179Z,6.4
2018-02-01T05:00:34.610Z,6.4
2018-02-01T05:01:37.033Z,6.4
2018-02-01T05:02:39.459Z,6.4
2018-02-01T05:03:41.887Z,6.4
2018-02-01T05:04:44.311Z,6.4
2018-02-01T05:05:46.720Z,6.4
2018-02-01T05:06:49.157Z,6.4
2018-02-01T05:07:51.855Z,6.4
2018-02-01T05:08:54.293Z,6.4
2018-02-01T05:09:56.719Z,6.4
2018-02-01T05:10:59.426Z,6.4
2018-02-01T05:12:02.135Z,6.4
2018-02-01T05:13:04.562Z,6.4
2018-02-01T05:14:07.269Z,6.4
2018-02-01T05:15:09.698Z,6.4
2018-02-01T05:16:12.113Z,6.4
2018-02-01T05:17:14.542Z,6.4
2018-02-01T05:18:16.963Z,6.4
2018-02-01T05:19:19.392Z,6.4
2018-02-01T05:20:21.815Z,6.4
2018-02-01T05:21:24.238Z,6.4
2018-02-01T05:22:26.658Z,6.4
2018-02-01T05:23:29.088Z,6.4
2018-02-01T05:24:31.501Z,6.4
2018-02-01T05:25:33.920Z,6.4
2018-02-01T05:26:36.344Z,6.4
2018-02-01T05:27:38.766Z,6.4
2018-02-01T05:28:41.189Z,6.4
2018-02-01T05:29:43.899Z,6.4
2018-02-01T05:30:46.320Z,6.4
2018-02-01T05:31:48.757Z,6.4
2018-02-01T05:32:51.186Z,6.4
2018-02-01T05:33:53.883Z,6.3
2018-02-01T05:34:56.309Z,6.3
2018-02-01T05:35:58.725Z,6.3
2018-02-01T05:37:01.143Z,6.3
2018-02-01T05:38:03.569Z,6.3
2018-02-01T05:39:06.141Z,6.3
2018-02-01T05:40:08.564Z,6.2
2018-02-01T05:41:10.997Z,6.3
2018-02-01T05:42:13.421Z,6.3
2018-02-01T05:43:16.121Z,6.2
2018-02-01T05:44:19.113Z,6.2
2018-02-01T05:45:21.535Z,6.2
2018-02-01T05:46:23.959Z,6.2
2018-02-01T05:47:26.382Z,6.2
2018-02-01T05:48:28.791Z,6.2
2018-02-01T05:49:31.500Z,6.2
2018-02-01T05:50:33.931Z,6.2
2018-02-01T05:51:36.354Z,6.1
2018-02-01T05:52:38.764Z,6.2
2018-02-01T05:53:41.194Z,6.2
2018-02-01T05:54:43.614Z,6.2
2018-02-01T05:55:46.031Z,6.2
2018-02-01T05:56:48.457Z,6.2
2018-02-01T05:57:50.881Z,6.2
2018-02-01T05:58:53.306Z,6.2
2018-02-01T05:59:55.727Z,6.2
2018-02-01T06:00:58.438Z,6.2
2018-02-01T06:02:01.150Z,6.2
2018-02-01T06:03:03.606Z,6.2
2018-02-01T06:04:06.357Z,6.2
2018-02-01T06:05:08.781Z,6.2
2018-02-01T06:06:11.499Z,6.2
2018-02-01T06:07:14.187Z,6.2
2018-02-01T06:08:16.611Z,6.1
2018-02-01T06:09:19.041Z,6.1
2018-02-01T06:10:21.479Z,6.1
2018-02-01T06:11:23.898Z,6.1
2018-02-01T06:12:26.328Z,6.1
2018-02-01T06:13:28.749Z,6.1
2018-02-01T06:14:31.466Z,6.1
2018-02-01T06:15:33.890Z,6.1
2018-02-01T06:16:36.588Z,6.1
2018-02-01T06:17:39.001Z,6.1
2018-02-01T06:18:41.426Z,6.1
2018-02-01T06:19:44.129Z,6.1
2018-02-01T06:20:46.548Z,6.1
2018-02-01T06:21:48.979Z,6.1
2018-02-01T06:22:51.403Z,6.1
2018-02-01T06:23:53.821Z,6.1
2018-02-01T06:24:56.244Z,6.1
2018-02-01T06:25:58.958Z,6.1
2018-02-01T06:27:01.366Z,6.1
2018-02-01T06:28:03.806Z,6.1
2018-02-01T06:29:06.496Z,6.1
2018-02-01T06:30:09.499Z,6.2
2018-02-01T06:31:11.934Z,6.1
2018-02-01T06:32:14.357Z,6.1
2018-02-01T06:33:16.779Z,6.1
2018-02-01T06:34:19.206Z,6.1
2018-02-01T06:35:21.631Z,6.1
2018-02-01T06:36:24.058Z,6.1
2018-02-01T06:37:26.473Z,6.1
2018-02-01T06:38:28.888Z,6.1
2018-02-01T06:39:31.315Z,6.1
2018-02-01T06:40:33.744Z,6.1
2018-02-01T06:41:36.175Z,6.1
2018-02-01T06:42:38.875Z,6.1
2018-02-01T06:43:41.293Z,6.1
2018-02-01T06:44:43.719Z,6.1
2018-02-01T06:45:46.748Z,6.1
2018-02-01T06:46:49.168Z,6.1
2018-02-01T06:47:51.590Z,6.1
2018-02-01T06:48:54.289Z,6.1
2018-02-01T06:49:56.723Z,6.1
2018-02-01T06:50:59.139Z,6.1
2018-02-01T06:52:01.576Z,6.1
2018-02-01T06:53:03.989Z,6.1
2018-02-01T06:54:06.414Z,6.1
2018-02-01T06:55:08.848Z,6.1
2018-02-01T06:56:11.559Z,6.1
2018-02-01T06:57:13.980Z,6.1
2018-02-01T06:58:16.409Z,6.1
2018-02-01T06:59:18.837Z,6.1
2018-02-01T07:00:21.255Z,6.1
2018-02-01T07:01:23.679Z,6.1
2018-02-01T07:02:26.380Z,6.1
2018-02-01T07:03:28.798Z,6.1
2018-02-01T07:04:31.232Z,6.1
2018-02-01T07:05:33.642Z,6.1
2018-02-01T07:06:36.068Z,6.1
2018-02-01T07:07:38.491Z,6.1
2018-02-01T07:08:40.905Z,6.1
2018-02-01T07:09:43.337Z,6.1
2018-02-01T07:10:45.757Z,6.1
2018-02-01T07:11:48.169Z,6.1
2018-02-01T07:12:50.598Z,6
2018-02-01T07:13:53.028Z,6.1
2018-02-01T07:14:55.451Z,6.1
2018-02-01T07:15:57.887Z,6.1
2018-02-01T07:17:00.302Z,6.1
2018-02-01T07:18:02.725Z,6.1
2018-02-01T07:19:05.154Z,6.1
2018-02-01T07:20:07.577Z,6.1
2018-02-01T07:21:09.996Z,6.1
2018-02-01T07:22:12.426Z,6.1
2018-02-01T07:23:15.133Z,6.1
2018-02-01T07:24:17.557Z,6.1
2018-02-01T07:25:20.259Z,6.1
2018-02-01T07:26:22.969Z,6.2
2018-02-01T07:27:25.386Z,6.2
2018-02-01T07:28:27.818Z,6.2
2018-02-01T07:29:30.237Z,6.2
2018-02-01T07:30:32.656Z,6.2
2018-02-01T07:31:35.082Z,6.2
2018-02-01T07:32:37.506Z,6.2
2018-02-01T07:33:39.934Z,6.3
2018-02-01T07:34:42.363Z,6.3
2018-02-01T07:35:44.772Z,6.3
2018-02-01T07:36:47.203Z,6.4
2018-02-01T07:37:49.905Z,6.4
2018-02-01T07:38:52.610Z,6.5
2018-02-01T07:39:55.040Z,6.5
2018-02-01T07:40:57.491Z,6.5
2018-02-01T07:41:59.906Z,6.5
2018-02-01T07:43:02.619Z,6.6
2018-02-01T07:44:05.039Z,6.6
2018-02-01T07:45:07.459Z,6.7
2018-02-01T07:46:09.878Z,6.7
2018-02-01T07:47:12.312Z,6.7
2018-02-01T07:48:14.739Z,6.8
2018-02-01T07:49:17.154Z,6.8
2018-02-01T07:50:19.585Z,6.9
2018-02-01T07:51:22.034Z,6.9
2018-02-01T07:52:24.482Z,6.9
2018-02-01T07:53:27.408Z,7
2018-02-01T07:54:30.130Z,7
2018-02-01T07:55:32.560Z,7.1
2018-02-01T07:56:34.973Z,7.1
2018-02-01T07:57:37.404Z,7.2
2018-02-01T07:58:39.832Z,7.2
2018-02-01T07:59:42.540Z,7.2
2018-02-01T08:00:45.114Z,7.3
2018-02-01T08:01:48.564Z,7.3
2018-02-01T08:02:50.986Z,7.3
2018-02-01T08:03:53.712Z,7.4
2018-02-01T08:04:56.128Z,7.4
2018-02-01T08:05:58.549Z,7.5
2018-02-01T08:07:00.966Z,7.5
2018-02-01T08:08:03.399Z,7.5
2018-02-01T08:09:05.829Z,7.6
2018-02-01T08:10:08.254Z,7.6
2018-02-01T08:11:10.672Z,7.6
2018-02-01T08:12:13.102Z,7.6
2018-02-01T08:13:15.526Z,7.7
2018-02-01T08:14:17.958Z,7.6
2018-02-01T08:15:20.382Z,7.6
2018-02-01T08:16:22.803Z,7.6
2018-02-01T08:17:25.224Z,7.7
2018-02-01T08:18:27.658Z,7.7
2018-02-01T08:19:30.087Z,7.6
2018-02-01T08:20:32.522Z,7.6
2018-02-01T08:21:34.950Z,7.6
2018-02-01T08:22:37.693Z,7.5
2018-02-01T08:23:40.119Z,7.5
2018-02-01T08:24:42.543Z,7.4
2018-02-01T08:25:44.960Z,7.4
2018-02-01T08:26:47.380Z,7.4
2018-02-01T08:27:49.815Z,7.3
2018-02-01T08:28:52.240Z,7.3
2018-02-01T08:29:54.658Z,7.3
2018-02-01T08:30:57.082Z,7.3
2018-02-01T08:31:59.506Z,7.3
2018-02-01T08:33:01.932Z,7.3
2018-02-01T08:34:04.370Z,7.2
2018-02-01T08:35:06.790Z,7.2
2018-02-01T08:36:09.505Z,7.2
2018-02-01T08:37:11.946Z,7.1
2018-02-01T08:38:14.653Z,7.1
2018-02-01T08:39:17.085Z,7.1
2018-02-01T08:40:19.501Z,7
2018-02-01T08:41:21.920Z,7
2018-02-01T08:42:24.348Z,7
2018-02-01T08:43:26.773Z,7
2018-02-01T08:44:29.189Z,7
2018-02-01T08:45:31.900Z,7
2018-02-01T08:46:34.323Z,7
2018-02-01T08:47:36.747Z,7
2018-02-01T08:48:39.169Z,7
2018-02-01T08:49:41.590Z,7
2018-02-01T08:50:44.297Z,7
2018-02-01T08:51:46.724Z,7
2018-02-01T08:52:49.149Z,7
2018-02-01T08:53:51.844Z,7
2018-02-01T08:54:54.602Z,7
2018-02-01T08:55:57.028Z,7
2018-02-01T08:56:59.459Z,7
2018-02-01T08:58:01.881Z,7
2018-02-01T08:59:04.312Z,7
2018-02-01T09:00:06.732Z,7
2018-02-01T09:01:09.168Z,7
2018-02-01T09:02:11.594Z,7
2018-02-01T09:03:14.007Z,7
2018-02-01T09:04:16.442Z,7.1
2018-02-01T09:05:18.871Z,7.1
2018-02-01T09:06:21.292Z,7.1
2018-02-01T09:07:23.723Z,7.1
2018-02-01T09:08:26.138Z,7.1
2018-02-01T09:09:28.561Z,7.1
2018-02-01T09:10:30.990Z,7.2
2018-02-01T09:11:33.440Z,7.2
2018-02-01T09:12:35.829Z,7.2
2018-02-01T09:13:38.545Z,7.2
2018-02-01T09:14:40.967Z,7.2
2018-02-01T09:15:43.400Z,7.2
2018-02-01T09:16:45.822Z,7.2
2018-02-01T09:17:48.524Z,7.2
2018-02-01T09:18:50.947Z,7.2
2018-02-01T09:19:53.366Z,7.3
2018-02-01T09:20:55.812Z,7.2
2018-02-01T09:21:58.215Z,7.3
2018-02-01T09:23:00.640Z,7.3
2018-02-01T09:24:03.065Z,7.3
2018-02-01T09:25:05.479Z,7.3
2018-02-01T09:26:08.193Z,7.3
2018-02-01T09:27:10.901Z,7.3
2018-02-01T09:28:13.613Z,7.3
2018-02-01T09:29:16.323Z,7.3
2018-02-01T09:30:19.026Z,7.3
2018-02-01T09:31:21.454Z,7.4
2018-02-01T09:32:23.881Z,7.4
2018-02-01T09:33:26.302Z,7.4
2018-02-01T09:34:28.727Z,7.4
2018-02-01T09:35:31.158Z,7.5
2018-02-01T09:36:33.583Z,7.5
2018-02-01T09:37:36.008Z,7.5
2018-02-01T09:38:38.436Z,7.6
2018-02-01T09:39:40.851Z,7.6
2018-02-01T09:40:43.581Z,7.6
2018-02-01T09:41:46.003Z,7.7
2018-02-01T09:42:48.420Z,7.6
2018-02-01T09:43:50.850Z,7.6
2018-02-01T09:44:53.272Z,7.6
2018-02-01T09:45:55.988Z,7.7
2018-02-01T09:46:58.416Z,7.7
2018-02-01T09:48:01.120Z,7.7
2018-02-01T09:49:03.824Z,7.7
2018-02-01T09:50:06.250Z,7.7
2018-02-01T09:51:08.685Z,7.7
2018-02-01T09:52:11.388Z,7.8
2018-02-01T09:53:13.803Z,7.8
2018-02-01T09:54:16.234Z,7.9
2018-02-01T09:55:18.659Z,7.9
2018-02-01T09:56:21.082Z,7.9
2018-02-01T09:57:23.510Z,8
2018-02-01T09:58:25.923Z,8
2018-02-01T09:59:28.348Z,8
2018-02-01T10:00:30.782Z,8.1
2018-02-01T10:01:33.203Z,8.1
2018-02-01T10:02:35.625Z,8.1
2018-02-01T10:03:38.043Z,8.2
2018-02-01T10:04:40.470Z,8.1
2018-02-01T10:05:43.191Z,8.2
2018-02-01T10:06:45.615Z,8.2
2018-02-01T10:07:48.035Z,8.2
2018-02-01T10:08:50.461Z,8.2
2018-02-01T10:09:52.888Z,8.2
2018-02-01T10:10:55.312Z,8.2
2018-02-01T10:11:57.738Z,8.2
2018-02-01T10:13:00.151Z,8.3
2018-02-01T10:14:02.578Z,8.3
2018-02-01T10:15:05.010Z,8.3
2018-02-01T10:16:07.430Z,8.4
2018-02-01T10:17:09.852Z,8.4
2018-02-01T10:18:12.275Z,8.5
2018-02-01T10:19:14.989Z,8.5
2018-02-01T10:20:17.419Z,8.6
2018-02-01T10:21:19.848Z,8.7
2018-02-01T10:22:22.282Z,8.7
2018-02-01T10:23:24.711Z,8.7
2018-02-01T10:24:27.123Z,8.7
2018-02-01T10:25:29.556Z,8.7
2018-02-01T10:26:31.974Z,8.7
2018-02-01T10:27:34.400Z,8.8
2018-02-01T10:28:36.826Z,8.8
2018-02-01T10:29:39.254Z,8.8
2018-02-01T10:30:41.677Z,8.8
2018-02-01T10:31:44.400Z,8.8
2018-02-01T10:32:46.817Z,8.8
2018-02-01T10:33:49.249Z,8.9
2018-02-01T10:34:51.673Z,8.9
2018-02-01T10:35:54.094Z,8.9
2018-02-01T10:36:56.524Z,8.9
2018-02-01T10:37:58.955Z,8.9
2018-02-01T10:39:01.376Z,8.9
2018-02-01T10:40:03.811Z,8.9
2018-02-01T10:41:06.233Z,8.9
2018-02-01T10:42:08.655Z,8.9
2018-02-01T10:43:11.085Z,8.9
2018-02-01T10:44:13.510Z,8.9
2018-02-01T10:45:15.930Z,8.9
2018-02-01T10:46:18.650Z,8.9
2018-02-01T10:47:21.364Z,8.9
2018-02-01T10:48:23.781Z,8.9
2018-02-01T10:49:26.207Z,8.9
2018-02-01T10:50:28.638Z,8.9
2018-02-01T10:51:31.066Z,8.9
2018-02-01T10:52:33.500Z,8.9
2018-02-01T10:53:35.921Z,8.9
2018-02-01T10:54:38.344Z,8.9
2018-02-01T10:55:40.794Z,8.9
2018-02-01T10:56:43.202Z,9
2018-02-01T10:57:45.617Z,9
2018-02-01T10:58:48.044Z,9
2018-02-01T10:59:50.758Z,9
2018-02-01T11:00:53.183Z,9.1
2018-02-01T11:01:55.615Z,9.1
2018-02-01T11:02:58.043Z,9.1
2018-02-01T11:04:00.765Z,9.1
2018-02-01T11:05:03.201Z,9.1
2018-02-01T11:06:05.916Z,9.1
2018-02-01T11:07:08.621Z,9.1
2018-02-01T11:08:11.049Z,9.1
2018-02-01T11:09:13.484Z,9.1
2018-02-01T11:10:16.197Z,9.1
2018-02-01T11:11:18.910Z,9.1
2018-02-01T11:12:21.331Z,9.1
2018-02-01T11:13:23.757Z,9.1
2018-02-01T11:14:26.197Z,9.1
2018-02-01T11:15:28.624Z,9.1
2018-02-01T11:16:31.059Z,9.1
2018-02-01T11:17:33.480Z,9.1
2018-02-01T11:18:35.910Z,9.1
2018-02-01T11:19:38.327Z,9.1
2018-02-01T11:20:40.758Z,9.1
2018-02-01T11:21:43.184Z,9.1
2018-02-01T11:22:45.617Z,9.1
2018-02-01T11:23:48.329Z,9.1
2018-02-01T11:24:50.756Z,9.2
2018-02-01T11:25:53.178Z,9.2
2018-02-01T11:26:55.613Z,9.3
2018-02-01T11:27:58.038Z,9.2
2018-02-01T11:29:00.474Z,9.2
2018-02-01T11:30:02.893Z,9.2
2018-02-01T11:31:05.327Z,9.2
2018-02-01T11:32:07.748Z,9.1
2018-02-01T11:33:10.194Z,9.2
2018-02-01T11:34:12.615Z,9.2
2018-02-01T11:35:15.043Z,9.2
2018-02-01T11:36:17.469Z,9.2
2018-02-01T11:37:19.902Z,9.2
2018-02-01T11:38:22.317Z,9.2
2018-02-01T11:39:24.760Z,9.2
2018-02-01T11:40:27.166Z,9.3
2018-02-01T11:41:29.600Z,9.3
2018-02-01T11:42:32.036Z,9.3
2018-02-01T11:43:34.466Z,9.3
2018-02-01T11:44:36.890Z,9.3
2018-02-01T11:45:39.324Z,9.4
2018-02-01T11:46:42.040Z,9.3
2018-02-01T11:47:44.736Z,9.4
2018-02-01T11:48:47.166Z,9.4
2018-02-01T11:49:49.594Z,9.4
2018-02-01T11:50:52.025Z,9.4
2018-02-01T11:51:54.454Z,9.4
2018-02-01T11:52:56.888Z,9.4
2018-02-01T11:53:59.304Z,9.4
2018-02-01T11:55:01.749Z,9.4
2018-02-01T11:56:04.162Z,9.3
2018-02-01T11:57:06.596Z,9.3
2018-02-01T11:58:09.022Z,9.3
2018-02-01T11:59:11.453Z,9.3
2018-02-01T12:00:13.877Z,9.2
2018-02-01T12:01:16.310Z,9.2
2018-02-01T12:02:18.736Z,9.2
2018-02-01T12:03:21.161Z,9.2
2018-02-01T12:04:23.588Z,9.2
2018-02-01T12:05:26.307Z,9.2
2018-02-01T12:06:28.724Z,9.2
2018-02-01T12:07:31.148Z,9.1
2018-02-01T12:08:33.578Z,9.1
2018-02-01T12:09:36.014Z,9.1
2018-02-01T12:10:38.435Z,9.1
2018-02-01T12:11:40.867Z,9.1
2018-02-01T12:12:43.289Z,9.1
2018-02-01T12:13:45.740Z,9.1
2018-02-01T12:14:48.159Z,9.1
2018-02-01T12:15:50.579Z,9.2
2018-02-01T12:16:53.285Z,9.1
2018-02-01T12:17:55.718Z,9.1
2018-02-01T12:18:58.135Z,9.2
2018-02-01T12:20:00.562Z,9.2
2018-02-01T12:21:02.999Z,9.2
2018-02-01T12:22:05.426Z,9.2
2018-02-01T12:23:07.853Z,9.2
2018-02-01T12:24:10.281Z,9.2
2018-02-01T12:25:12.707Z,9.2
2018-02-01T12:26:15.133Z,9.2
2018-02-01T12:27:17.557Z,9.2
2018-02-01T12:28:19.973Z,9.2
2018-02-01T12:29:22.398Z,9.2
2018-02-01T12:30:24.833Z,9.2
2018-02-01T12:31:27.544Z,9.2
2018-02-01T12:32:29.977Z,9.3
2018-02-01T12:33:32.397Z,9.3
2018-02-01T12:34:34.821Z,9.3
2018-02-01T12:35:37.256Z,9.3
2018-02-01T12:36:39.680Z,9.3
2018-02-01T12:37:42.377Z,9.3
2018-02-01T12:38:44.810Z,9.3
2018-02-01T12:39:47.236Z,9.2
2018-02-01T12:40:49.657Z,9.2
2018-02-01T12:41:52.082Z,9.2
2018-02-01T12:42:54.508Z,9.3
2018-02-01T12:43:56.936Z,9.3
2018-02-01T12:44:59.372Z,9.3
2018-02-01T12:46:02.070Z,9.4
2018-02-01T12:47:04.501Z,9.4
2018-02-01T12:48:06.928Z,9.4
2018-02-01T12:49:09.348Z,9.4
2018-02-01T12:50:11.780Z,9.3
2018-02-01T12:51:14.209Z,9.3
2018-02-01T12:52:16.912Z,9.3
2018-02-01T12:53:19.353Z,9.3
2018-02-01T12:54:21.770Z,9.3
2018-02-01T12:55:24.481Z,9.3
2018-02-01T12:56:26.907Z,9.3
2018-02-01T12:57:29.333Z,9.3
2018-02-01T12:58:31.756Z,9.3
2018-02-01T12:59:34.195Z,9.4
2018-02-01T13:00:36.609Z,9.4
2018-02-01T13:01:39.049Z,9.4
2018-02-01T13:02:41.474Z,9.4
2018-02-01T13:03:43.885Z,9.4
2018-02-01T13:04:46.317Z,9.4
2018-02-01T13:05:48.740Z,9.5
2018-02-01T13:06:51.184Z,9.5
2018-02-01T13:07:53.987Z,9.5
2018-02-01T13:08:56.685Z,9.5
2018-02-01T13:09:59.113Z,9.6
2018-02-01T13:11:01.553Z,9.6
2018-02-01T13:12:03.972Z,9.6
2018-02-01T13:13:06.401Z,9.6
2018-02-01T13:14:08.823Z,9.6
2018-02-01T13:15:11.252Z,9.6
2018-02-01T13:16:13.670Z,9.6
2018-02-01T13:17:16.096Z,9.6
2018-02-01T13:18:18.533Z,9.5
2018-02-01T13:19:20.955Z,9.5
2018-02-01T13:20:23.380Z,9.5
2018-02-01T13:21:25.801Z,9.5
2018-02-01T13:22:28.234Z,9.5
2018-02-01T13:23:30.997Z,9.5
2018-02-01T13:24:33.375Z,9.6
2018-02-01T13:25:35.789Z,9.5
2018-02-01T13:26:38.510Z,9.5
2018-02-01T13:27:40.951Z,9.5
2018-02-01T13:28:43.378Z,9.5
2018-02-01T13:29:45.804Z,9.6
2018-02-01T13:30:48.518Z,9.6
2018-02-01T13:31:51.225Z,9.6
2018-02-01T13:32:53.655Z,9.7
2018-02-01T13:33:56.076Z,9.7
2018-02-01T13:34:58.796Z,9.7
2018-02-01T13:36:01.229Z,9.7
2018-02-01T13:37:03.661Z,9.7
2018-02-01T13:38:06.086Z,9.7
2018-02-01T13:39:08.516Z,9.7
2018-02-01T13:40:10.939Z,9.7
2018-02-01T13:41:13.665Z,9.6
2018-02-01T13:42:16.101Z,9.6
2018-02-01T13:43:18.805Z,9.6
2018-02-01T13:44:21.233Z,9.6
2018-02-01T13:45:23.952Z,9.6
2018-02-01T13:46:26.373Z,9.6
2018-02-01T13:47:28.806Z,9.6
2018-02-01T13:48:31.234Z,9.6
2018-02-01T13:49:33.671Z,9.6
2018-02-01T13:50:36.097Z,9.6
2018-02-01T13:51:38.803Z,9.7
2018-02-01T13:52:41.236Z,9.7
2018-02-01T13:53:43.658Z,9.8
2018-02-01T13:54:46.367Z,9.8
2018-02-01T13:55:49.070Z,9.9
2018-02-01T13:56:51.527Z,9.9
2018-02-01T13:57:53.918Z,10
2018-02-01T13:58:56.364Z,10
2018-02-01T13:59:59.071Z,10
2018-02-01T14:01:01.791Z,10
2018-02-01T14:02:04.230Z,10
2018-02-01T14:03:06.653Z,10.1
2018-02-01T14:04:09.082Z,10.1
2018-02-01T14:05:11.515Z,10.1
2018-02-01T14:06:14.219Z,10
2018-02-01T14:07:16.647Z,10
2018-02-01T14:08:19.077Z,10
2018-02-01T14:09:21.500Z,10
2018-02-01T14:10:23.927Z,10
2018-02-01T14:11:26.356Z,10
2018-02-01T14:12:28.773Z,10
2018-02-01T14:13:31.206Z,10
2018-02-01T14:14:33.640Z,10
2018-02-01T14:15:36.061Z,10
2018-02-01T14:16:38.495Z,10
2018-02-01T14:17:40.922Z,10
2018-02-01T14:18:43.357Z,10
2018-02-01T14:19:46.066Z,10
2018-02-01T14:20:48.493Z,9.9
2018-02-01T14:21:50.916Z,9.9
2018-02-01T14:22:53.359Z,9.9
2018-02-01T14:23:55.782Z,10
2018-02-01T14:24:58.209Z,9.9